^^
Saratoga-Weather Station Historical Data
Daily Summary for December 12, 2021 Units:  Both    English   Metric
Daily Weekly Monthly Yearly Custom
  High: Low: Average:
Temperature: 43.3 °F /  6.3 °C 34.5 °F /  1.4 °C 40.1 °F /  4.5 °C
Dew Point: 42.6 °F /  5.9 °C 32.9 °F /  0.5 °C 38.8 °F /  3.8 °C
Humidity: 97% 90% 95%
Wind Speed: 6.9mph /  11.1km/h - 0.6mph /  1km/h
Wind Gust: 8mph /  12.9km/h - -
Wind- - SSE
Pressure: 30.3 in /  1027.4 hPa 30.2 in /  1024.0 hPa -
Precipitation: 0.02 in /  0.5 mm    
Historical Graphs
 
 
Tabular Data for December 12, 2021
Time Temperature Dew Point Pressure Wind Wind Speed Wind Gust Humidity Rainfall Rate (Hourly) solar
00:02 36.7 °F /  2.6 °C 34.9 °F /  1.6 °C 30.3in /  1024.4hPa Calm     93% 0in /  0.0mm 0 W/m2
00:07 36.3 °F /  2.4 °C 34.5 °F /  1.4 °C 30.2in /  1024.0hPa Calm     93% 0in /  0.0mm 0 W/m2
00:12 36.1 °F /  2.3 °C 34.3 °F /  1.3 °C 30.3in /  1024.4hPa Calm     93% 0in /  0.0mm 0 W/m2
00:17 36 °F /  2.2 °C 34.2 °F /  1.2 °C 30.3in /  1024.4hPa Calm     93% 0in /  0.0mm 0 W/m2
00:22 35.6 °F /  2 °C 33.8 °F /  1 °C 30.2in /  1024.0hPa Calm     93% 0in /  0.0mm 0 W/m2
00:27 35.4 °F /  1.9 °C 33.8 °F /  1 °C 30.2in /  1024.0hPa Calm     94% 0in /  0.0mm 0 W/m2
00:32 35.2 °F /  1.8 °C 33.6 °F /  0.9 °C 30.2in /  1024.0hPa Calm     94% 0in /  0.0mm 0 W/m2
00:37 35.1 °F /  1.7 °C 33.4 °F /  0.8 °C 30.2in /  1024.0hPa Calm     94% 0in /  0.0mm 0 W/m2
00:42 35.1 °F /  1.7 °C 33.4 °F /  0.8 °C 30.2in /  1024.0hPa East 2mph /  3.2km/h 2mph /  3.2km/h 94% 0in /  0.0mm 0 W/m2
00:47 35.1 °F /  1.7 °C 33.4 °F /  0.8 °C 30.3in /  1024.4hPa Calm     94% 0in /  0.0mm 0 W/m2
01:06 34.5 °F /  1.4 °C 32.9 °F /  0.5 °C 30.3in /  1024.4hPa Calm     94% 0in /  0.0mm 0 W/m2
01:11 34.5 °F /  1.4 °C 32.9 °F /  0.5 °C 30.3in /  1024.4hPa Calm     94% 0in /  0.0mm 0 W/m2
01:16 34.5 °F /  1.4 °C 33.3 °F /  0.7 °C 30.3in /  1024.4hPa Calm     95% 0in /  0.0mm 0 W/m2
01:21 34.5 °F /  1.4 °C 33.3 °F /  0.7 °C 30.3in /  1024.4hPa Calm     95% 0in /  0.0mm 0 W/m2
01:26 34.5 °F /  1.4 °C 33.3 °F /  0.7 °C 30.3in /  1024.4hPa Calm     95% 0in /  0.0mm 0 W/m2
01:31 34.5 °F /  1.4 °C 33.3 °F /  0.7 °C 30.3in /  1024.4hPa Calm     95% 0in /  0.0mm 0 W/m2
01:36 34.5 °F /  1.4 °C 33.3 °F /  0.7 °C 30.3in /  1024.7hPa Calm     95% 0in /  0.0mm 0 W/m2
01:41 34.5 °F /  1.4 °C 33.3 °F /  0.7 °C 30.3in /  1024.4hPa Calm     95% 0in /  0.0mm 0 W/m2
01:46 34.5 °F /  1.4 °C 33.3 °F /  0.7 °C 30.3in /  1024.7hPa Calm     95% 0in /  0.0mm 0 W/m2
01:51 34.5 °F /  1.4 °C 33.3 °F /  0.7 °C 30.3in /  1024.7hPa Calm     95% 0in /  0.0mm 0 W/m2
01:56 34.5 °F /  1.4 °C 33.3 °F /  0.7 °C 30.3in /  1024.7hPa Calm     95% 0in /  0.0mm 0 W/m2
02:01 34.5 °F /  1.4 °C 33.3 °F /  0.7 °C 30.3in /  1024.4hPa Calm     95% 0in /  0.0mm 0 W/m2
02:06 34.7 °F /  1.5 °C 33.6 °F /  0.9 °C 30.3in /  1024.4hPa Calm     96% 0in /  0.0mm 0 W/m2
02:11 35.1 °F /  1.7 °C 34 °F /  1.1 °C 30.3in /  1024.4hPa Calm     96% 0in /  0.0mm 0 W/m2
02:16 35.2 °F /  1.8 °C 34.2 °F /  1.2 °C 30.3in /  1024.4hPa Calm     96% 0in /  0.0mm 0 W/m2
02:21 35.2 °F /  1.8 °C 34.2 °F /  1.2 °C 30.3in /  1024.4hPa Calm     96% 0in /  0.0mm 0 W/m2
02:26 35.4 °F /  1.9 °C 34.3 °F /  1.3 °C 30.3in /  1024.7hPa East 0.9mph /  1.4km/h 1mph /  1.6km/h 96% 0in /  0.0mm 0 W/m2
02:31 35.8 °F /  2.1 °C 34.7 °F /  1.5 °C 30.3in /  1024.7hPa Calm   2mph /  3.2km/h 96% 0in /  0.0mm 0 W/m2
02:36 35.8 °F /  2.1 °C 34.7 °F /  1.5 °C 30.3in /  1024.7hPa Calm     96% 0in /  0.0mm 0 W/m2
02:41 36 °F /  2.2 °C 34.9 °F /  1.6 °C 30.3in /  1024.7hPa Calm   1mph /  1.6km/h 96% 0in /  0.0mm 0 W/m2
02:46 36 °F /  2.2 °C 34.9 °F /  1.6 °C 30.3in /  1024.7hPa Calm     96% 0in /  0.0mm 0 W/m2
02:51 36 °F /  2.2 °C 34.9 °F /  1.6 °C 30.3in /  1024.7hPa ENE 2mph /  3.2km/h 2mph /  3.2km/h 96% 0in /  0.0mm 0 W/m2
02:57 36 °F /  2.2 °C 34.9 °F /  1.6 °C 30.3in /  1024.7hPa Calm   2mph /  3.2km/h 96% 0in /  0.0mm 0 W/m2
03:17 35.8 °F /  2.1 °C 34.7 °F /  1.5 °C 30.3in /  1024.7hPa East 0.9mph /  1.4km/h 3mph /  4.8km/h 96% 0in /  0.0mm 0 W/m2
03:22 35.8 °F /  2.1 °C 34.7 °F /  1.5 °C 30.3in /  1024.7hPa East 0.9mph /  1.4km/h 2mph /  3.2km/h 96% 0in /  0.0mm 0 W/m2
03:27 35.6 °F /  2 °C 34.5 °F /  1.4 °C 30.3in /  1024.7hPa East 2mph /  3.2km/h 2mph /  3.2km/h 96% 0in /  0.0mm 0 W/m2
03:32 35.6 °F /  2 °C 34.5 °F /  1.4 °C 30.3in /  1024.7hPa Calm   1mph /  1.6km/h 96% 0in /  0.0mm 0 W/m2
03:37 35.4 °F /  1.9 °C 34.3 °F /  1.3 °C 30.3in /  1024.7hPa Calm   2mph /  3.2km/h 96% 0in /  0.0mm 0 W/m2
03:43 35.4 °F /  1.9 °C 34.3 °F /  1.3 °C 30.3in /  1024.7hPa Calm     96% 0in /  0.0mm 0 W/m2
03:48 35.4 °F /  1.9 °C 34.3 °F /  1.3 °C 30.3in /  1024.7hPa Calm     96% 0in /  0.0mm 0 W/m2
03:53 35.4 °F /  1.9 °C 34.3 °F /  1.3 °C 30.3in /  1024.7hPa Calm     96% 0in /  0.0mm 0 W/m2
03:58 35.4 °F /  1.9 °C 34.3 °F /  1.3 °C 30.3in /  1024.7hPa Calm     96% 0in /  0.0mm 0 W/m2
04:03 35.4 °F /  1.9 °C 34.3 °F /  1.3 °C 30.3in /  1024.7hPa Calm     96% 0in /  0.0mm 0 W/m2
04:08 35.4 °F /  1.9 °C 34.3 °F /  1.3 °C 30.3in /  1024.7hPa Calm     96% 0in /  0.0mm 0 W/m2
04:13 35.4 °F /  1.9 °C 34.3 °F /  1.3 °C 30.3in /  1024.4hPa ESE 0.9mph /  1.4km/h 2mph /  3.2km/h 96% 0in /  0.0mm 0 W/m2
04:18 35.6 °F /  2 °C 34.5 °F /  1.4 °C 30.3in /  1024.4hPa ESE 2mph /  3.2km/h 2mph /  3.2km/h 96% 0in /  0.0mm 0 W/m2
04:23 35.6 °F /  2 °C 34.5 °F /  1.4 °C 30.3in /  1024.7hPa ESE 2mph /  3.2km/h 2mph /  3.2km/h 96% 0in /  0.0mm 0 W/m2
04:28 35.8 °F /  2.1 °C 34.7 °F /  1.5 °C 30.3in /  1024.7hPa Calm   1mph /  1.6km/h 96% 0in /  0.0mm 0 W/m2
04:33 35.8 °F /  2.1 °C 34.7 °F /  1.5 °C 30.3in /  1024.7hPa Calm     96% 0in /  0.0mm 0 W/m2
04:38 35.8 °F /  2.1 °C 34.7 °F /  1.5 °C 30.3in /  1025.1hPa ESE 0.9mph /  1.4km/h 2mph /  3.2km/h 96% 0in /  0.0mm 0 W/m2
04:43 35.8 °F /  2.1 °C 34.7 °F /  1.5 °C 30.3in /  1024.7hPa ESE 0.9mph /  1.4km/h 2mph /  3.2km/h 96% 0in /  0.0mm 0 W/m2
04:48 35.8 °F /  2.1 °C 34.7 °F /  1.5 °C 30.3in /  1024.7hPa Calm   1mph /  1.6km/h 96% 0in /  0.0mm 0 W/m2
04:53 36 °F /  2.2 °C 34.9 °F /  1.6 °C 30.3in /  1024.7hPa ESE 0.9mph /  1.4km/h 2mph /  3.2km/h 96% 0in /  0.0mm 0 W/m2
04:58 36.3 °F /  2.4 °C 35.2 °F /  1.8 °C 30.3in /  1024.7hPa East 0.9mph /  1.4km/h 3mph /  4.8km/h 96% 0in /  0.0mm 0 W/m2
05:03 36.7 °F /  2.6 °C 35.6 °F /  2 °C 30.3in /  1024.7hPa East 0.9mph /  1.4km/h 2mph /  3.2km/h 96% 0in /  0.0mm 0 W/m2
05:08 37 °F /  2.8 °C 36 °F /  2.2 °C 30.3in /  1024.7hPa Calm   1mph /  1.6km/h 96% 0in /  0.0mm 0 W/m2
05:13 37.2 °F /  2.9 °C 36.1 °F /  2.3 °C 30.3in /  1024.7hPa NE 2mph /  3.2km/h 2mph /  3.2km/h 96% 0in /  0.0mm 0 W/m2
05:18 37.6 °F /  3.1 °C 36.5 °F /  2.5 °C 30.3in /  1024.7hPa ESE 0.9mph /  1.4km/h 3mph /  4.8km/h 96% 0in /  0.0mm 0 W/m2
05:23 37.8 °F /  3.2 °C 36.7 °F /  2.6 °C 30.3in /  1024.7hPa ENE 2mph /  3.2km/h 3mph /  4.8km/h 96% 0in /  0.0mm 0 W/m2
05:28 37.9 °F /  3.3 °C 36.9 °F /  2.7 °C 30.3in /  1024.7hPa NNE 0.9mph /  1.4km/h 3mph /  4.8km/h 96% 0in /  0.0mm 0 W/m2
05:33 37.9 °F /  3.3 °C 36.9 °F /  2.7 °C 30.3in /  1024.7hPa ENE 2mph /  3.2km/h 2mph /  3.2km/h 96% 0in /  0.0mm 0 W/m2
05:38 38.1 °F /  3.4 °C 36.9 °F /  2.7 °C 30.3in /  1024.7hPa East 2mph /  3.2km/h 4mph /  6.4km/h 95% 0in /  0.0mm 0 W/m2
05:43 38.1 °F /  3.4 °C 36.9 °F /  2.7 °C 30.3in /  1024.7hPa SE 0.9mph /  1.4km/h 3mph /  4.8km/h 95% 0in /  0.0mm 0 W/m2
05:48 38.3 °F /  3.5 °C 37 °F /  2.8 °C 30.3in /  1024.7hPa Calm     95% 0in /  0.0mm 0 W/m2
05:53 38.3 °F /  3.5 °C 37 °F /  2.8 °C 30.3in /  1025.1hPa ENE 2mph /  3.2km/h 3mph /  4.8km/h 95% 0in /  0.0mm 0 W/m2
05:58 38.5 °F /  3.6 °C 36.9 °F /  2.7 °C 30.3in /  1025.1hPa ENE 0.9mph /  1.4km/h 3mph /  4.8km/h 94% 0in /  0.0mm 0 W/m2
06:03 38.5 °F /  3.6 °C 36.9 °F /  2.7 °C 30.3in /  1025.1hPa Calm   2mph /  3.2km/h 94% 0in /  0.0mm 0 W/m2
06:08 38.7 °F /  3.7 °C 37 °F /  2.8 °C 30.3in /  1025.1hPa North 2.9mph /  4.7km/h 3mph /  4.8km/h 94% 0in /  0.0mm 0 W/m2
06:13 38.8 °F /  3.8 °C 37 °F /  2.8 °C 30.3in /  1025.1hPa NE 0.9mph /  1.4km/h 4mph /  6.4km/h 93% 0in /  0.0mm 0 W/m2
06:18 39 °F /  3.9 °C 37.2 °F /  2.9 °C 30.3in /  1025.1hPa NNW 0.9mph /  1.4km/h 3mph /  4.8km/h 93% 0in /  0.0mm 0 W/m2
06:23 39 °F /  3.9 °C 36.9 °F /  2.7 °C 30.3in /  1025.1hPa Calm   4mph /  6.4km/h 92% 0in /  0.0mm 0 W/m2
06:28 39.2 °F /  4 °C 37 °F /  2.8 °C 30.3in /  1025.1hPa NE 0.9mph /  1.4km/h 2mph /  3.2km/h 92% 0in /  0.0mm 0 W/m2
06:45 39.4 °F /  4.1 °C 37 °F /  2.8 °C 30.3in /  1025.1hPa WNW 0.9mph /  1.4km/h 3mph /  4.8km/h 91% 0in /  0.0mm 0 W/m2
06:50 39.4 °F /  4.1 °C 36.7 °F /  2.6 °C 30.3in /  1025.1hPa West 2mph /  3.2km/h 5mph /  8km/h 90% 0in /  0.0mm 0 W/m2
06:55 39.4 °F /  4.1 °C 37 °F /  2.8 °C 30.3in /  1025.1hPa NNE 0.9mph /  1.4km/h 3mph /  4.8km/h 91% 0in /  0.0mm 0 W/m2
07:01 39.2 °F /  4 °C 36.9 °F /  2.7 °C 30.3in /  1025.1hPa NNW 0.9mph /  1.4km/h 6mph /  9.7km/h 91% 0in /  0.0mm 0 W/m2
07:06 39 °F /  3.9 °C 36.7 °F /  2.6 °C 30.3in /  1025.1hPa WNW 2mph /  3.2km/h 4mph /  6.4km/h 91% 0in /  0.0mm 0 W/m2
07:11 39 °F /  3.9 °C 36.7 °F /  2.6 °C 30.3in /  1025.1hPa NW 0.9mph /  1.4km/h 4mph /  6.4km/h 91% 0in /  0.0mm 0 W/m2
07:16 38.8 °F /  3.8 °C 36.5 °F /  2.5 °C 30.3in /  1025.4hPa NNE 2mph /  3.2km/h 3mph /  4.8km/h 91% 0in /  0.0mm 0 W/m2
07:21 38.8 °F /  3.8 °C 36.7 °F /  2.6 °C 30.3in /  1025.4hPa Calm   1mph /  1.6km/h 92% 0in /  0.0mm 0 W/m2
07:26 38.7 °F /  3.7 °C 36.5 °F /  2.5 °C 30.3in /  1025.1hPa Calm   1mph /  1.6km/h 92% 0in /  0.0mm 0 W/m2
07:31 38.7 °F /  3.7 °C 36.5 °F /  2.5 °C 30.3in /  1025.1hPa WNW 2mph /  3.2km/h   92% 0in /  0.0mm 0 W/m2
07:36 38.7 °F /  3.7 °C 36.5 °F /  2.5 °C 30.3in /  1025.1hPa Calm   2mph /  3.2km/h 92% 0.01in /  0.2mm 0 W/m2
07:41 38.5 °F /  3.6 °C 36.3 °F /  2.4 °C 30.3in /  1025.4hPa NNE 2mph /  3.2km/h 2mph /  3.2km/h 92% 0.01in /  0.2mm 0 W/m2
07:46 38.5 °F /  3.6 °C 36.7 °F /  2.6 °C 30.3in /  1025.4hPa Calm   4mph /  6.4km/h 93% 0.01in /  0.2mm 0 W/m2
07:51 38.5 °F /  3.6 °C 36.7 °F /  2.6 °C 30.3in /  1025.4hPa Calm   4mph /  6.4km/h 93% 0.01in /  0.2mm 0 W/m2
07:56 38.5 °F /  3.6 °C 36.7 °F /  2.6 °C 30.3in /  1025.4hPa NE 2mph /  3.2km/h 2mph /  3.2km/h 93% 0.01in /  0.2mm 0 W/m2
08:01 38.5 °F /  3.6 °C 36.7 °F /  2.6 °C 30.3in /  1025.4hPa ENE 2mph /  3.2km/h 3mph /  4.8km/h 93% 0.01in /  0.2mm 0 W/m2
08:06 38.5 °F /  3.6 °C 36.7 °F /  2.6 °C 30.3in /  1025.4hPa ENE 0.9mph /  1.4km/h 2mph /  3.2km/h 93% 0.01in /  0.2mm 0 W/m2
08:11 38.5 °F /  3.6 °C 36.7 °F /  2.6 °C 30.3in /  1025.7hPa North 2mph /  3.2km/h 2mph /  3.2km/h 93% 0.01in /  0.2mm 0 W/m2
08:16 38.5 °F /  3.6 °C 36.7 °F /  2.6 °C 30.3in /  1025.7hPa NNE 2mph /  3.2km/h 3mph /  4.8km/h 93% 0.01in /  0.2mm 0 W/m2
08:21 38.5 °F /  3.6 °C 36.7 °F /  2.6 °C 30.3in /  1025.7hPa NNW 0.9mph /  1.4km/h 3mph /  4.8km/h 93% 0.01in /  0.2mm 0 W/m2
08:26 38.7 °F /  3.7 °C 36.9 °F /  2.7 °C 30.3in /  1025.7hPa NNW 0.9mph /  1.4km/h 1mph /  1.6km/h 93% 0.01in /  0.2mm 0 W/m2
08:31 38.7 °F /  3.7 °C 36.9 °F /  2.7 °C 30.3in /  1025.7hPa Calm   2mph /  3.2km/h 93% 0.01in /  0.2mm 0 W/m2
08:36 38.7 °F /  3.7 °C 36.9 °F /  2.7 °C 30.3in /  1025.7hPa ENE 0.9mph /  1.4km/h 4mph /  6.4km/h 93% 0in /  0.0mm 0 W/m2
08:41 38.7 °F /  3.7 °C 36.9 °F /  2.7 °C 30.3in /  1025.7hPa ENE 2mph /  3.2km/h 2mph /  3.2km/h 93% 0in /  0.0mm 5 W/m2
08:46 38.7 °F /  3.7 °C 36.9 °F /  2.7 °C 30.3in /  1025.7hPa NE 0.9mph /  1.4km/h 4mph /  6.4km/h 93% 0in /  0.0mm 7 W/m2
08:51 38.7 °F /  3.7 °C 36.9 °F /  2.7 °C 30.3in /  1025.4hPa NE 0.9mph /  1.4km/h 3mph /  4.8km/h 93% 0in /  0.0mm 11 W/m2
08:56 38.8 °F /  3.8 °C 37 °F /  2.8 °C 30.3in /  1025.7hPa Calm   4mph /  6.4km/h 93% 0in /  0.0mm 12 W/m2
09:01 38.8 °F /  3.8 °C 37 °F /  2.8 °C 30.3in /  1025.7hPa Calm   1mph /  1.6km/h 93% 0in /  0.0mm 12 W/m2
09:06 38.8 °F /  3.8 °C 37 °F /  2.8 °C 30.3in /  1025.7hPa NE 0.9mph /  1.4km/h 2mph /  3.2km/h 93% 0in /  0.0mm 14 W/m2
09:11 39 °F /  3.9 °C 36.9 °F /  2.7 °C 30.3in /  1025.7hPa Calm   2mph /  3.2km/h 92% 0in /  0.0mm 12 W/m2
09:16 39 °F /  3.9 °C 37.2 °F /  2.9 °C 30.3in /  1025.7hPa Calm   4mph /  6.4km/h 93% 0in /  0.0mm 14 W/m2
09:21 39.2 °F /  4 °C 37.4 °F /  3 °C 30.3in /  1025.7hPa NE 0.9mph /  1.4km/h 2mph /  3.2km/h 93% 0in /  0.0mm 12 W/m2
09:26 39.4 °F /  4.1 °C 37.2 °F /  2.9 °C 30.3in /  1025.7hPa Calm   4mph /  6.4km/h 92% 0in /  0.0mm 14 W/m2
09:31 39.4 °F /  4.1 °C 37.2 °F /  2.9 °C 30.3in /  1025.7hPa Calm   2mph /  3.2km/h 92% 0in /  0.0mm 21 W/m2
09:36 39.6 °F /  4.2 °C 37.4 °F /  3 °C 30.3in /  1025.7hPa East 4mph /  6.4km/h 4mph /  6.4km/h 92% 0in /  0.0mm 26 W/m2
09:41 39.6 °F /  4.2 °C 37.4 °F /  3 °C 30.3in /  1025.7hPa ENE 0.9mph /  1.4km/h 3mph /  4.8km/h 92% 0in /  0.0mm 32 W/m2
09:46 39.6 °F /  4.2 °C 37.4 °F /  3 °C 30.3in /  1026.1hPa ENE 0.9mph /  1.4km/h 2mph /  3.2km/h 92% 0in /  0.0mm 33 W/m2
09:51 39.7 °F /  4.3 °C 37.6 °F /  3.1 °C 30.3in /  1026.1hPa Calm   2mph /  3.2km/h 92% 0in /  0.0mm 35 W/m2
09:56 39.7 °F /  4.3 °C 37.6 °F /  3.1 °C 30.3in /  1026.1hPa ENE 0.9mph /  1.4km/h 2mph /  3.2km/h 92% 0in /  0.0mm 40 W/m2
10:01 39.9 °F /  4.4 °C 37.8 °F /  3.2 °C 30.3in /  1026.1hPa NE 2mph /  3.2km/h 4mph /  6.4km/h 92% 0in /  0.0mm 28 W/m2
10:06 39.9 °F /  4.4 °C 37.8 °F /  3.2 °C 30.3in /  1026.1hPa NNE 0.9mph /  1.4km/h 4mph /  6.4km/h 92% 0in /  0.0mm 37 W/m2
10:11 39.9 °F /  4.4 °C 37.8 °F /  3.2 °C 30.3in /  1026.1hPa NE 4mph /  6.4km/h 4mph /  6.4km/h 92% 0in /  0.0mm 54 W/m2
10:16 39.9 °F /  4.4 °C 37.8 °F /  3.2 °C 30.3in /  1026.4hPa Calm   2mph /  3.2km/h 92% 0in /  0.0mm 56 W/m2
10:21 39.9 °F /  4.4 °C 37.8 °F /  3.2 °C 30.3in /  1026.1hPa NNE 2mph /  3.2km/h 3mph /  4.8km/h 92% 0in /  0.0mm 72 W/m2
10:26 39.9 °F /  4.4 °C 37.8 °F /  3.2 °C 30.3in /  1026.1hPa Calm   1mph /  1.6km/h 92% 0in /  0.0mm 72 W/m2
10:31 39.9 °F /  4.4 °C 38.1 °F /  3.4 °C 30.3in /  1026.4hPa WNW 2mph /  3.2km/h 4mph /  6.4km/h 93% 0in /  0.0mm 51 W/m2
10:36 39.9 °F /  4.4 °C 38.1 °F /  3.4 °C 30.3in /  1026.4hPa Calm   1mph /  1.6km/h 93% 0in /  0.0mm 35 W/m2
10:41 39.9 °F /  4.4 °C 38.1 °F /  3.4 °C 30.3in /  1026.4hPa ENE 0.9mph /  1.4km/h 4mph /  6.4km/h 93% 0in /  0.0mm 47 W/m2
10:46 39.9 °F /  4.4 °C 38.1 °F /  3.4 °C 30.3in /  1026.4hPa NW 2mph /  3.2km/h 4mph /  6.4km/h 93% 0in /  0.0mm 58 W/m2
10:51 39.9 °F /  4.4 °C 38.1 °F /  3.4 °C 30.3in /  1026.4hPa NE 2mph /  3.2km/h 3mph /  4.8km/h 93% 0in /  0.0mm 46 W/m2
10:56 39.9 °F /  4.4 °C 38.1 °F /  3.4 °C 30.3in /  1026.4hPa East 0.9mph /  1.4km/h 2mph /  3.2km/h 93% 0in /  0.0mm 79 W/m2
11:01 40.1 °F /  4.5 °C 38.3 °F /  3.5 °C 30.3in /  1026.4hPa North 2mph /  3.2km/h 3mph /  4.8km/h 93% 0in /  0.0mm 76 W/m2
11:06 40.3 °F /  4.6 °C 38.5 °F /  3.6 °C 30.3in /  1026.4hPa West 4mph /  6.4km/h 5mph /  8km/h 93% 0in /  0.0mm 69 W/m2
11:11 40.3 °F /  4.6 °C 38.5 °F /  3.6 °C 30.3in /  1026.4hPa NW 2mph /  3.2km/h 3mph /  4.8km/h 93% 0in /  0.0mm 83 W/m2
11:16 40.3 °F /  4.6 °C 38.7 °F /  3.7 °C 30.3in /  1026.4hPa SSW 0.9mph /  1.4km/h 3mph /  4.8km/h 94% 0in /  0.0mm 95 W/m2
11:21 40.3 °F /  4.6 °C 38.7 °F /  3.7 °C 30.3in /  1026.1hPa Calm   2mph /  3.2km/h 94% 0in /  0.0mm 90 W/m2
11:26 40.3 °F /  4.6 °C 38.7 °F /  3.7 °C 30.3in /  1026.1hPa West 0.9mph /  1.4km/h 3mph /  4.8km/h 94% 0in /  0.0mm 100 W/m2
11:31 40.5 °F /  4.7 °C 38.8 °F /  3.8 °C 30.3in /  1026.1hPa Calm   3mph /  4.8km/h 94% 0in /  0.0mm 95 W/m2
11:36 40.5 °F /  4.7 °C 38.8 °F /  3.8 °C 30.3in /  1026.1hPa ENE 0.9mph /  1.4km/h 2mph /  3.2km/h 94% 0in /  0.0mm 86 W/m2
11:41 40.5 °F /  4.7 °C 38.8 °F /  3.8 °C 30.3in /  1026.1hPa Calm   1mph /  1.6km/h 94% 0in /  0.0mm 81 W/m2
11:46 40.6 °F /  4.8 °C 39 °F /  3.9 °C 30.3in /  1026.1hPa ENE 0.9mph /  1.4km/h 1mph /  1.6km/h 94% 0in /  0.0mm 63 W/m2
11:51 40.6 °F /  4.8 °C 39 °F /  3.9 °C 30.3in /  1026.1hPa WNW 2mph /  3.2km/h 4mph /  6.4km/h 94% 0in /  0.0mm 58 W/m2
11:56 40.6 °F /  4.8 °C 39 °F /  3.9 °C 30.3in /  1026.1hPa Calm   5mph /  8km/h 94% 0in /  0.0mm 69 W/m2
12:01 40.6 °F /  4.8 °C 39 °F /  3.9 °C 30.3in /  1026.1hPa NW 4mph /  6.4km/h 4mph /  6.4km/h 94% 0in /  0.0mm 74 W/m2
12:06 40.8 °F /  4.9 °C 39.2 °F /  4 °C 30.3in /  1026.1hPa Calm   3mph /  4.8km/h 94% 0in /  0.0mm 70 W/m2
12:11 40.8 °F /  4.9 °C 39.2 °F /  4 °C 30.3in /  1026.1hPa WSW 2.9mph /  4.7km/h 4mph /  6.4km/h 94% 0in /  0.0mm 74 W/m2
12:16 40.8 °F /  4.9 °C 39.2 °F /  4 °C 30.3in /  1025.7hPa SSW 0.9mph /  1.4km/h 5mph /  8km/h 94% 0in /  0.0mm 97 W/m2
12:21 40.8 °F /  4.9 °C 39.2 °F /  4 °C 30.3in /  1025.7hPa Calm   2mph /  3.2km/h 94% 0in /  0.0mm 107 W/m2
12:26 41 °F /  5 °C 39.4 °F /  4.1 °C 30.3in /  1025.7hPa WSW 2mph /  3.2km/h 8mph /  12.9km/h 94% 0in /  0.0mm 91 W/m2
12:46 41.4 °F /  5.2 °C 39.7 °F /  4.3 °C 30.3in /  1026.1hPa WNW 6.9mph /  11.1km/h 8mph /  12.9km/h 94% 0in /  0.0mm 69 W/m2
12:51 41.4 °F /  5.2 °C 39.7 °F /  4.3 °C 30.3in /  1026.1hPa West 2.9mph /  4.7km/h 6mph /  9.7km/h 94% 0in /  0.0mm 63 W/m2
12:56 41.5 °F /  5.3 °C 39.9 °F /  4.4 °C 30.3in /  1026.1hPa WNW 0.9mph /  1.4km/h 8mph /  12.9km/h 94% 0in /  0.0mm 74 W/m2
13:01 41.5 °F /  5.3 °C 39.9 °F /  4.4 °C 30.3in /  1025.7hPa WNW 4mph /  6.4km/h 4mph /  6.4km/h 94% 0in /  0.0mm 86 W/m2
13:06 41.7 °F /  5.4 °C 40.1 °F /  4.5 °C 30.3in /  1025.7hPa WNW 2.9mph /  4.7km/h 6mph /  9.7km/h 94% 0in /  0.0mm 95 W/m2
13:11 41.7 °F /  5.4 °C 40.1 °F /  4.5 °C 30.3in /  1026.1hPa NNW 2mph /  3.2km/h 4mph /  6.4km/h 94% 0in /  0.0mm 74 W/m2
13:16 41.9 °F /  5.5 °C 40.3 °F /  4.6 °C 30.3in /  1025.7hPa NNW 0.9mph /  1.4km/h 5mph /  8km/h 94% 0in /  0.0mm 69 W/m2
13:21 42.1 °F /  5.6 °C 40.5 °F /  4.7 °C 30.3in /  1025.7hPa North 0.9mph /  1.4km/h 2mph /  3.2km/h 94% 0in /  0.0mm 77 W/m2
13:26 42.1 °F /  5.6 °C 40.5 °F /  4.7 °C 30.3in /  1025.7hPa NNW 2mph /  3.2km/h 4mph /  6.4km/h 94% 0in /  0.0mm 81 W/m2
13:31 42.3 °F /  5.7 °C 40.6 °F /  4.8 °C 30.3in /  1025.7hPa NNE 2mph /  3.2km/h 2mph /  3.2km/h 94% 0in /  0.0mm 72 W/m2
13:36 42.3 °F /  5.7 °C 40.6 °F /  4.8 °C 30.3in /  1025.7hPa WSW 0.9mph /  1.4km/h 7mph /  11.3km/h 94% 0in /  0.0mm 67 W/m2
13:41 42.3 °F /  5.7 °C 40.6 °F /  4.8 °C 30.3in /  1025.7hPa WNW 0.9mph /  1.4km/h 7mph /  11.3km/h 94% 0in /  0.0mm 60 W/m2
14:01 42.6 °F /  5.9 °C 41 °F /  5 °C 30.3in /  1025.7hPa East 0.9mph /  1.4km/h 2mph /  3.2km/h 94% 0in /  0.0mm 51 W/m2
14:06 42.6 °F /  5.9 °C 41 °F /  5 °C 30.3in /  1025.7hPa Calm   3mph /  4.8km/h 94% 0in /  0.0mm 44 W/m2
14:11 42.6 °F /  5.9 °C 41 °F /  5 °C 30.3in /  1025.7hPa Calm     94% 0in /  0.0mm 46 W/m2
14:16 42.8 °F /  6 °C 41.2 °F /  5.1 °C 30.3in /  1025.7hPa South 0.9mph /  1.4km/h 2mph /  3.2km/h 94% 0in /  0.0mm 42 W/m2
14:21 42.8 °F /  6 °C 41.2 °F /  5.1 °C 30.3in /  1025.7hPa Calm   3mph /  4.8km/h 94% 0in /  0.0mm 37 W/m2
14:26 43 °F /  6.1 °C 41.4 °F /  5.2 °C 30.3in /  1025.7hPa NE 2mph /  3.2km/h 2mph /  3.2km/h 94% 0in /  0.0mm 32 W/m2
14:31 43 °F /  6.1 °C 41.4 °F /  5.2 °C 30.3in /  1025.7hPa WNW 2mph /  3.2km/h 3mph /  4.8km/h 94% 0in /  0.0mm 32 W/m2
14:36 43 °F /  6.1 °C 41.4 °F /  5.2 °C 30.3in /  1025.7hPa Calm   1mph /  1.6km/h 94% 0in /  0.0mm 28 W/m2
14:41 43 °F /  6.1 °C 41.4 °F /  5.2 °C 30.3in /  1025.7hPa Calm   2mph /  3.2km/h 94% 0in /  0.0mm 25 W/m2
14:46 43 °F /  6.1 °C 41.4 °F /  5.2 °C 30.3in /  1025.7hPa WSW 0.9mph /  1.4km/h 3mph /  4.8km/h 94% 0in /  0.0mm 21 W/m2
14:51 43 °F /  6.1 °C 41.4 °F /  5.2 °C 30.3in /  1025.7hPa Calm   1mph /  1.6km/h 94% 0in /  0.0mm 21 W/m2
14:56 43 °F /  6.1 °C 41.4 °F /  5.2 °C 30.3in /  1025.7hPa Calm   3mph /  4.8km/h 94% 0in /  0.0mm 21 W/m2
15:01 43 °F /  6.1 °C 41.4 °F /  5.2 °C 30.3in /  1025.7hPa Calm   2mph /  3.2km/h 94% 0in /  0.0mm 19 W/m2
15:06 43.2 °F /  6.2 °C 41.5 °F /  5.3 °C 30.3in /  1025.7hPa Calm   3mph /  4.8km/h 94% 0in /  0.0mm 16 W/m2
15:11 43.2 °F /  6.2 °C 41.5 °F /  5.3 °C 30.3in /  1025.7hPa Calm     94% 0in /  0.0mm 12 W/m2
15:16 43.2 °F /  6.2 °C 41.5 °F /  5.3 °C 30.3in /  1025.7hPa Calm   1mph /  1.6km/h 94% 0in /  0.0mm 14 W/m2
15:21 43.2 °F /  6.2 °C 41.5 °F /  5.3 °C 30.3in /  1025.7hPa Calm   1mph /  1.6km/h 94% 0in /  0.0mm 16 W/m2
15:26 43.2 °F /  6.2 °C 41.5 °F /  5.3 °C 30.3in /  1026.1hPa North 2mph /  3.2km/h 2mph /  3.2km/h 94% 0in /  0.0mm 16 W/m2
15:31 43.2 °F /  6.2 °C 41.9 °F /  5.5 °C 30.3in /  1025.7hPa NNE 0.9mph /  1.4km/h 2mph /  3.2km/h 95% 0in /  0.0mm 16 W/m2
15:36 43.2 °F /  6.2 °C 41.9 °F /  5.5 °C 30.3in /  1026.1hPa North 2mph /  3.2km/h 2mph /  3.2km/h 95% 0in /  0.0mm 12 W/m2
15:41 43.2 °F /  6.2 °C 41.9 °F /  5.5 °C 30.3in /  1026.1hPa Calm     95% 0in /  0.0mm 11 W/m2
15:47 43.2 °F /  6.2 °C 41.9 °F /  5.5 °C 30.3in /  1026.1hPa Calm     95% 0in /  0.0mm 9 W/m2
15:52 43.2 °F /  6.2 °C 41.9 °F /  5.5 °C 30.3in /  1026.1hPa Calm     95% 0in /  0.0mm 7 W/m2
15:57 43.2 °F /  6.2 °C 41.9 °F /  5.5 °C 30.3in /  1026.1hPa Calm   3mph /  4.8km/h 95% 0in /  0.0mm 5 W/m2
16:02 43.2 °F /  6.2 °C 41.9 °F /  5.5 °C 30.3in /  1026.1hPa NW 0.9mph /  1.4km/h 2mph /  3.2km/h 95% 0in /  0.0mm 0 W/m2
16:07 43.2 °F /  6.2 °C 41.9 °F /  5.5 °C 30.3in /  1026.1hPa North 0.9mph /  1.4km/h 3mph /  4.8km/h 95% 0in /  0.0mm 5 W/m2
16:12 43.2 °F /  6.2 °C 41.9 °F /  5.5 °C 30.3in /  1026.1hPa North 2mph /  3.2km/h 3mph /  4.8km/h 95% 0in /  0.0mm 5 W/m2
16:17 43.2 °F /  6.2 °C 41.9 °F /  5.5 °C 30.3in /  1026.4hPa NNE 0.9mph /  1.4km/h 2mph /  3.2km/h 95% 0in /  0.0mm 5 W/m2
16:22 43.2 °F /  6.2 °C 41.9 °F /  5.5 °C 30.3in /  1026.4hPa NNE 0.9mph /  1.4km/h 1mph /  1.6km/h 95% 0in /  0.0mm 5 W/m2
16:27 43.2 °F /  6.2 °C 41.9 °F /  5.5 °C 30.3in /  1026.4hPa Calm   2mph /  3.2km/h 95% 0in /  0.0mm 0 W/m2
16:32 43.2 °F /  6.2 °C 41.9 °F /  5.5 °C 30.3in /  1026.4hPa NE 0.9mph /  1.4km/h 1mph /  1.6km/h 95% 0in /  0.0mm 0 W/m2
16:37 43.2 °F /  6.2 °C 42.1 °F /  5.6 °C 30.3in /  1026.4hPa Calm     96% 0in /  0.0mm 0 W/m2
16:42 43.2 °F /  6.2 °C 42.1 °F /  5.6 °C 30.3in /  1026.4hPa Calm     96% 0in /  0.0mm 0 W/m2
16:47 43.2 °F /  6.2 °C 42.1 °F /  5.6 °C 30.3in /  1026.4hPa Calm     96% 0in /  0.0mm 0 W/m2
16:52 43.2 °F /  6.2 °C 42.1 °F /  5.6 °C 30.3in /  1026.4hPa Calm     96% 0in /  0.0mm 0 W/m2
16:57 43.2 °F /  6.2 °C 42.1 °F /  5.6 °C 30.3in /  1026.4hPa NE 0.9mph /  1.4km/h 1mph /  1.6km/h 96% 0in /  0.0mm 0 W/m2
17:02 43.2 °F /  6.2 °C 42.1 °F /  5.6 °C 30.3in /  1026.4hPa Calm   2mph /  3.2km/h 96% 0in /  0.0mm 0 W/m2
17:07 43.2 °F /  6.2 °C 42.1 °F /  5.6 °C 30.3in /  1026.4hPa Calm     96% 0in /  0.0mm 0 W/m2
17:12 43.2 °F /  6.2 °C 42.1 °F /  5.6 °C 30.3in /  1026.4hPa Calm   2mph /  3.2km/h 96% 0in /  0.0mm 0 W/m2
17:17 43.2 °F /  6.2 °C 42.1 °F /  5.6 °C 30.3in /  1026.4hPa Calm     96% 0in /  0.0mm 0 W/m2
17:38 43.2 °F /  6.2 °C 42.1 °F /  5.6 °C 30.3in /  1026.8hPa Calm     96% 0in /  0.0mm 0 W/m2
17:43 43.2 °F /  6.2 °C 42.1 °F /  5.6 °C 30.3in /  1026.8hPa Calm     96% 0in /  0.0mm 0 W/m2
17:48 43.2 °F /  6.2 °C 42.1 °F /  5.6 °C 30.3in /  1026.8hPa Calm     96% 0in /  0.0mm 0 W/m2
17:53 43.2 °F /  6.2 °C 42.1 °F /  5.6 °C 30.3in /  1026.8hPa Calm     96% 0in /  0.0mm 0 W/m2
17:58 43.2 °F /  6.2 °C 42.1 °F /  5.6 °C 30.3in /  1026.8hPa Calm   1mph /  1.6km/h 96% 0in /  0.0mm 0 W/m2
18:03 43.2 °F /  6.2 °C 42.1 °F /  5.6 °C 30.3in /  1026.8hPa Calm     96% 0in /  0.0mm 0 W/m2
18:08 43.2 °F /  6.2 °C 42.1 °F /  5.6 °C 30.3in /  1026.8hPa Calm   3mph /  4.8km/h 96% 0in /  0.0mm 0 W/m2
18:13 43.2 °F /  6.2 °C 42.1 °F /  5.6 °C 30.3in /  1026.8hPa Calm     96% 0in /  0.0mm 0 W/m2
18:18 43.2 °F /  6.2 °C 42.1 °F /  5.6 °C 30.3in /  1026.8hPa Calm   3mph /  4.8km/h 96% 0.01in /  0.2mm 0 W/m2
18:23 43.3 °F /  6.3 °C 42.3 °F /  5.7 °C 30.3in /  1026.8hPa Calm     96% 0.01in /  0.2mm 0 W/m2
18:28 43.2 °F /  6.2 °C 42.1 °F /  5.6 °C 30.3in /  1026.8hPa North 0.9mph /  1.4km/h 2mph /  3.2km/h 96% 0.01in /  0.2mm 0 W/m2
18:33 43.3 °F /  6.3 °C 42.3 °F /  5.7 °C 30.3in /  1026.8hPa Calm   2mph /  3.2km/h 96% 0.01in /  0.2mm 0 W/m2
18:38 43.3 °F /  6.3 °C 42.3 °F /  5.7 °C 30.3in /  1026.8hPa Calm     96% 0.01in /  0.2mm 0 W/m2
18:58 43.2 °F /  6.2 °C 42.1 °F /  5.6 °C 30.3in /  1026.8hPa Calm     96% 0.01in /  0.2mm 0 W/m2
19:03 43.2 °F /  6.2 °C 42.1 °F /  5.6 °C 30.3in /  1026.8hPa Calm     96% 0.02in /  0.5mm 0 W/m2
19:08 43.2 °F /  6.2 °C 42.1 °F /  5.6 °C 30.3in /  1026.8hPa Calm     96% 0.02in /  0.5mm 0 W/m2
19:13 43.2 °F /  6.2 °C 42.1 °F /  5.6 °C 30.3in /  1026.8hPa NNE 0.9mph /  1.4km/h 1mph /  1.6km/h 96% 0.01in /  0.2mm 0 W/m2
19:18 43.2 °F /  6.2 °C 42.1 °F /  5.6 °C 30.3in /  1027.1hPa Calm   1mph /  1.6km/h 96% 0.01in /  0.2mm 0 W/m2
19:23 43.2 °F /  6.2 °C 42.1 °F /  5.6 °C 30.3in /  1027.1hPa NNW 2mph /  3.2km/h 2mph /  3.2km/h 96% 0.01in /  0.2mm 0 W/m2
19:40 43.2 °F /  6.2 °C 42.1 °F /  5.6 °C 30.3in /  1027.1hPa Calm     96% 0.01in /  0.2mm 0 W/m2
19:45 43.2 °F /  6.2 °C 42.1 °F /  5.6 °C 30.3in /  1027.1hPa Calm     96% 0.01in /  0.2mm 0 W/m2
19:50 43.2 °F /  6.2 °C 42.1 °F /  5.6 °C 30.3in /  1027.1hPa Calm   1mph /  1.6km/h 96% 0.01in /  0.2mm 0 W/m2
19:55 43.2 °F /  6.2 °C 42.1 °F /  5.6 °C 30.3in /  1027.1hPa Calm     96% 0.01in /  0.2mm 0 W/m2
20:00 43 °F /  6.1 °C 41.9 °F /  5.5 °C 30.3in /  1027.1hPa Calm   1mph /  1.6km/h 96% 0in /  0.0mm 0 W/m2
20:05 43 °F /  6.1 °C 42.3 °F /  5.7 °C 30.3in /  1027.1hPa Calm     97% 0in /  0.0mm 0 W/m2
20:10 43 °F /  6.1 °C 42.3 °F /  5.7 °C 30.3in /  1027.1hPa NNE 2mph /  3.2km/h 2mph /  3.2km/h 97% 0in /  0.0mm 0 W/m2
20:15 43 °F /  6.1 °C 42.3 °F /  5.7 °C 30.3in /  1027.1hPa Calm   2mph /  3.2km/h 97% 0in /  0.0mm 0 W/m2
20:20 43 °F /  6.1 °C 42.3 °F /  5.7 °C 30.3in /  1027.1hPa NNE 0.9mph /  1.4km/h 1mph /  1.6km/h 97% 0in /  0.0mm 0 W/m2
20:25 43 °F /  6.1 °C 42.3 °F /  5.7 °C 30.3in /  1027.1hPa Calm     97% 0in /  0.0mm 0 W/m2
20:31 43 °F /  6.1 °C 42.3 °F /  5.7 °C 30.3in /  1027.4hPa Calm     97% 0in /  0.0mm 0 W/m2
20:36 43 °F /  6.1 °C 42.3 °F /  5.7 °C 30.3in /  1027.4hPa Calm   1mph /  1.6km/h 97% 0in /  0.0mm 0 W/m2
20:41 43.2 °F /  6.2 °C 42.4 °F /  5.8 °C 30.3in /  1027.4hPa Calm     97% 0in /  0.0mm 0 W/m2
20:46 43.2 °F /  6.2 °C 42.4 °F /  5.8 °C 30.3in /  1027.4hPa Calm     97% 0in /  0.0mm 0 W/m2
20:51 43.2 °F /  6.2 °C 42.4 °F /  5.8 °C 30.3in /  1027.4hPa Calm     97% 0in /  0.0mm 0 W/m2
20:56 43.2 °F /  6.2 °C 42.4 °F /  5.8 °C 30.3in /  1027.4hPa Calm   1mph /  1.6km/h 97% 0in /  0.0mm 0 W/m2
21:01 43.3 °F /  6.3 °C 42.6 °F /  5.9 °C 30.3in /  1027.4hPa Calm     97% 0in /  0.0mm 0 W/m2
21:06 43.3 °F /  6.3 °C 42.6 °F /  5.9 °C 30.3in /  1027.4hPa Calm     97% 0in /  0.0mm 0 W/m2
21:11 43.3 °F /  6.3 °C 42.6 °F /  5.9 °C 30.3in /  1027.4hPa Calm     97% 0in /  0.0mm 0 W/m2
21:16 43.2 °F /  6.2 °C 42.4 °F /  5.8 °C 30.3in /  1027.4hPa Calm     97% 0in /  0.0mm 0 W/m2
21:21 43.2 °F /  6.2 °C 42.4 °F /  5.8 °C 30.3in /  1027.4hPa Calm     97% 0in /  0.0mm 0 W/m2
21:26 43.2 °F /  6.2 °C 42.4 °F /  5.8 °C 30.3in /  1027.4hPa Calm     97% 0in /  0.0mm 0 W/m2
21:31 43.2 °F /  6.2 °C 42.4 °F /  5.8 °C 30.3in /  1027.4hPa Calm     97% 0in /  0.0mm 0 W/m2
21:36 43.2 °F /  6.2 °C 42.4 °F /  5.8 °C 30.3in /  1027.4hPa Calm   1mph /  1.6km/h 97% 0in /  0.0mm 0 W/m2
21:41 43.2 °F /  6.2 °C 42.4 °F /  5.8 °C 30.3in /  1027.4hPa Calm   1mph /  1.6km/h 97% 0in /  0.0mm 0 W/m2
21:46 43.2 °F /  6.2 °C 42.4 °F /  5.8 °C 30.3in /  1027.4hPa Calm     97% 0in /  0.0mm 0 W/m2
21:51 43.2 °F /  6.2 °C 42.4 °F /  5.8 °C 30.3in /  1027.4hPa Calm   2mph /  3.2km/h 97% 0in /  0.0mm 0 W/m2
21:56 43.2 °F /  6.2 °C 42.4 °F /  5.8 °C 30.3in /  1027.4hPa Calm   2mph /  3.2km/h 97% 0in /  0.0mm 0 W/m2
22:01 43 °F /  6.1 °C 42.3 °F /  5.7 °C 30.3in /  1027.4hPa Calm     97% 0in /  0.0mm 0 W/m2
22:06 43 °F /  6.1 °C 42.3 °F /  5.7 °C 30.3in /  1027.4hPa Calm   2mph /  3.2km/h 97% 0in /  0.0mm 0 W/m2
22:11 43 °F /  6.1 °C 42.3 °F /  5.7 °C 30.3in /  1027.4hPa Calm   2mph /  3.2km/h 97% 0in /  0.0mm 0 W/m2
22:16 42.8 °F /  6 °C 42.1 °F /  5.6 °C 30.3in /  1027.4hPa Calm     97% 0in /  0.0mm 0 W/m2
22:21 42.8 °F /  6 °C 42.1 °F /  5.6 °C 30.3in /  1027.4hPa Calm   2mph /  3.2km/h 97% 0in /  0.0mm 0 W/m2
22:26 42.8 °F /  6 °C 42.1 °F /  5.6 °C 30.3in /  1027.4hPa Calm     97% 0in /  0.0mm 0 W/m2
22:31 42.6 °F /  5.9 °C 41.9 °F /  5.5 °C 30.3in /  1027.4hPa Calm     97% 0in /  0.0mm 0 W/m2
22:36 42.6 °F /  5.9 °C 41.9 °F /  5.5 °C 30.3in /  1027.4hPa Calm     97% 0in /  0.0mm 0 W/m2
22:41 42.6 °F /  5.9 °C 41.9 °F /  5.5 °C 30.3in /  1027.4hPa Calm     97% 0in /  0.0mm 0 W/m2
22:46 42.6 °F /  5.9 °C 41.9 °F /  5.5 °C 30.3in /  1027.4hPa Calm   1mph /  1.6km/h 97% 0in /  0.0mm 0 W/m2
22:51 42.6 °F /  5.9 °C 41.9 °F /  5.5 °C 30.3in /  1027.4hPa Calm     97% 0in /  0.0mm 0 W/m2
22:56 42.4 °F /  5.8 °C 41.7 °F /  5.4 °C 30.3in /  1027.4hPa Calm     97% 0in /  0.0mm 0 W/m2
23:02 42.4 °F /  5.8 °C 41.7 °F /  5.4 °C 30.3in /  1027.4hPa Calm   2mph /  3.2km/h 97% 0in /  0.0mm 0 W/m2
23:07 42.4 °F /  5.8 °C 41.7 °F /  5.4 °C 30.3in /  1027.4hPa Calm     97% 0in /  0.0mm 0 W/m2
23:12 42.4 °F /  5.8 °C 41.7 °F /  5.4 °C 30.3in /  1027.4hPa Calm   2mph /  3.2km/h 97% 0in /  0.0mm 0 W/m2
23:17 42.4 °F /  5.8 °C 41.7 °F /  5.4 °C 30.3in /  1027.4hPa Calm     97% 0in /  0.0mm 0 W/m2
23:22 42.4 °F /  5.8 °C 41.7 °F /  5.4 °C 30.3in /  1027.4hPa Calm     97% 0in /  0.0mm 0 W/m2
23:27 42.6 °F /  5.9 °C 41.9 °F /  5.5 °C 30.3in /  1027.4hPa Calm     97% 0in /  0.0mm 0 W/m2
23:32 42.6 °F /  5.9 °C 41.9 °F /  5.5 °C 30.3in /  1027.4hPa Calm     97% 0in /  0.0mm 0 W/m2
23:37 42.6 °F /  5.9 °C 41.9 °F /  5.5 °C 30.3in /  1027.4hPa Calm     97% 0in /  0.0mm 0 W/m2
23:42 42.6 °F /  5.9 °C 41.9 °F /  5.5 °C 30.3in /  1027.4hPa Calm   2mph /  3.2km/h 97% 0in /  0.0mm 0 W/m2
23:47 42.6 °F /  5.9 °C 41.9 °F /  5.5 °C 30.3in /  1027.4hPa ENE 0.9mph /  1.4km/h 2mph /  3.2km/h 97% 0in /  0.0mm 0 W/m2
23:52 42.6 °F /  5.9 °C 41.9 °F /  5.5 °C 30.3in /  1027.4hPa Calm     97% 0in /  0.0mm 0 W/m2
23:57 42.6 °F /  5.9 °C 41.9 °F /  5.5 °C 30.3in /  1027.4hPa ENE 1mph /  1.6km/h 1mph /  1.6km/h 97% 0in /  0.0mm 0 W/m2
Juneau County Weather
Compliments of Weather Underground - 4 mb